地図

経路データ

SID SEASON NUMBER BASIN SUBBASIN NAME ISO_TIME NATURE LAT LON WMO_WIND WMO_PRES WMO_AGENCY TRACK_TYPE DIST2LAND LANDFALL IFLAG USA_AGENCY USA_ATCF_ID USA_LAT USA_LON USA_RECORD USA_STATUS USA_WIND USA_PRES USA_SSHS USA_R34_NE USA_R34_SE USA_R34_SW USA_R34_NW USA_R50_NE USA_R50_SE USA_R50_SW USA_R50_NW USA_R64_NE USA_R64_SE USA_R64_SW USA_R64_NW USA_POCI USA_ROCI USA_RMW USA_EYE TOKYO_LAT TOKYO_LON TOKYO_GRADE TOKYO_WIND TOKYO_PRES TOKYO_R50_DIR TOKYO_R50_LONG TOKYO_R50_SHORT TOKYO_R30_DIR TOKYO_R30_LONG TOKYO_R30_SHORT TOKYO_LAND CMA_LAT CMA_LON CMA_CAT CMA_WIND CMA_PRES HKO_LAT HKO_LON HKO_CAT HKO_WIND HKO_PRES NEWDELHI_LAT NEWDELHI_LON NEWDELHI_GRADE NEWDELHI_WIND NEWDELHI_PRES NEWDELHI_CI NEWDELHI_DP NEWDELHI_POCI REUNION_LAT REUNION_LON REUNION_TYPE REUNION_WIND REUNION_PRES REUNION_TNUM REUNION_CI REUNION_RMW REUNION_R34_NE REUNION_R34_SE REUNION_R34_SW REUNION_R34_NW REUNION_R50_NE REUNION_R50_SE REUNION_R50_SW REUNION_R50_NW REUNION_R64_NE REUNION_R64_SE REUNION_R64_SW REUNION_R64_NW BOM_LAT BOM_LON BOM_TYPE BOM_WIND BOM_PRES BOM_TNUM BOM_CI BOM_RMW BOM_R34_NE BOM_R34_SE BOM_R34_SW BOM_R34_NW BOM_R50_NE BOM_R50_SE BOM_R50_SW BOM_R50_NW BOM_R64_NE BOM_R64_SE BOM_R64_SW BOM_R64_NW BOM_ROCI BOM_POCI BOM_EYE BOM_POS_METHOD BOM_PRES_METHOD NADI_LAT NADI_LON NADI_CAT NADI_WIND NADI_PRES WELLINGTON_LAT WELLINGTON_LON WELLINGTON_WIND WELLINGTON_PRES DS824_LAT DS824_LON DS824_STAGE DS824_WIND DS824_PRES TD9636_LAT TD9636_LON TD9636_STAGE TD9636_WIND TD9636_PRES TD9635_LAT TD9635_LON TD9635_WIND TD9635_PRES TD9635_ROCI NEUMANN_LAT NEUMANN_LON NEUMANN_CLASS NEUMANN_WIND NEUMANN_PRES MLC_LAT MLC_LON MLC_CLASS MLC_WIND MLC_PRES USA_GUST BOM_GUST BOM_GUST_PER REUNION_GUST REUNION_GUST_PER USA_SEAHGT USA_SEARAD_NE USA_SEARAD_SE USA_SEARAD_SW USA_SEARAD_NW STORM_SPEED STORM_DIR
1929153S17154 1929 33 SP EA NOT_NAMED 1929-06-01 12:00:00 NR -17.1000 154.200 main 671 651 __________O___ -1 -17.1000 154.200 7 5 218
1929153S17154 1929 33 SP EA NOT_NAMED 1929-06-01 15:00:00 NR -17.2813 154.050 main 651 621 __________P___ -1 -17.2813 154.050 7 5 217
1929153S17154 1929 33 SP EA NOT_NAMED 1929-06-01 18:00:00 NR -17.4801 153.900 main 621 600 __________P___ -1 -17.4801 153.900 7 5 213
1929153S17154 1929 33 SP EA NOT_NAMED 1929-06-01 21:00:00 NR -17.7138 153.750 main 591 566 __________P___ -1 -17.7138 153.750 7 6 209
1929153S17154 1929 33 SP EA NOT_NAMED 1929-06-02 00:00:00 NR -18.0000 153.600 main 566 541 __________O___ -1 -18.0000 153.600 7 7 204
1929153S17154 1929 33 SP EA NOT_NAMED 1929-06-02 03:00:00 NR -18.3497 153.452 main 541 494 __________P___ -1 -18.3497 153.452 7 8 200
1929153S17154 1929 33 SP EA NOT_NAMED 1929-06-02 06:00:00 NR -18.7476 153.313 main 494 451 __________P___ -1 -18.7476 153.313 7 9 197
1929153S17154 1929 33 SP EA NOT_NAMED 1929-06-02 09:00:00 NR -19.1716 153.192 main 442 400 __________P___ -1 -19.1716 153.192 7 9 193
1929153S17154 1929 33 SP EA NOT_NAMED 1929-06-02 12:00:00 NR -19.6000 153.100 main 400 358 __________O___ -1 -19.6000 153.100 7 9 190
1929153S17154 1929 33 SP EA NOT_NAMED 1929-06-02 15:00:00 NR -20.0243 153.034 main 358 326 __________P___ -1 -20.0243 153.034 7 9 187
1929153S17154 1929 33 SP EA NOT_NAMED 1929-06-02 18:00:00 NR -20.4449 152.997 main 326 296 __________P___ -1 -20.4449 152.997 7 8 182
1929153S17154 1929 33 SP EA NOT_NAMED 1929-06-02 21:00:00 NR -20.8431 152.987 main 296 269 __________P___ -1 -20.8431 152.987 7 8 0
1929153S17154 1929 33 SP EA NOT_NAMED 1929-06-03 00:00:00 NR -21.2000 153.000 main 269 252 __________O___ -1 -21.2000 153.000 7 7 178
1929153S17154 1929 33 SP EA NOT_NAMED 1929-06-03 03:00:00 NR -21.5012 153.012 main 252 243 __________P___ -1 -21.5012 153.012 7 6 176
1929153S17154 1929 33 SP EA NOT_NAMED 1929-06-03 06:00:00 NR -21.7599 153.048 main 239 239 __________P___ -1 -21.7599 153.048 7 5 170
1929153S17154 1929 33 SP EA NOT_NAMED 1929-06-03 09:00:00 NR -21.9887 153.109 main 243 240 __________P___ -1 -21.9887 153.109 7 5 162
1929153S17154 1929 33 SP EA NOT_NAMED 1929-06-03 12:00:00 NR -22.2000 153.200 main 249 244 __________O___ -1 -22.2000 153.200 7 5 157
1929153S17154 1929 33 SP EA NOT_NAMED 1929-06-03 15:00:00 NR -22.4061 153.301 main 244 234 __________P___ -1 -22.4061 153.301 7 5 152
1929153S17154 1929 33 SP EA NOT_NAMED 1929-06-03 18:00:00 NR -22.5998 153.433 main 234 225 __________P___ -1 -22.5998 153.433 7 5 145
1929153S17154 1929 33 SP EA NOT_NAMED 1929-06-03 21:00:00 NR -22.7936 153.598 main 225 207 __________P___ -1 -22.7936 153.598 7 5 140
1929153S17154 1929 33 SP EA NOT_NAMED 1929-06-04 00:00:00 NR -23.0000 153.800 main 207 192 __________O___ -1 -23.0000 153.800 7 6 137
1929153S17154 1929 33 SP EA NOT_NAMED 1929-06-04 03:00:00 NR -23.2399 154.047 main 192 177 __________P___ -1 -23.2399 154.047 7 7 135
1929153S17154 1929 33 SP EA NOT_NAMED 1929-06-04 06:00:00 NR -23.4928 154.327 main 177 172 __________P___ -1 -23.4928 154.327 7 7 134
1929153S17154 1929 33 SP EA NOT_NAMED 1929-06-04 09:00:00 NR -23.7493 154.619 main 180 172 __________P___ -1 -23.7493 154.619 7 7 134
1929153S17154 1929 33 SP EA NOT_NAMED 1929-06-04 12:00:00 NR -24.0000 154.900 main 184 184 __________O___ -1 -24.0000 154.900 7 7 137
1929153S17154 1929 33 SP EA NOT_NAMED 1929-06-04 15:00:00 NR -24.2400 155.128 main 193 188 __________P___ -1 -24.2400 155.128 7 6 140
1929153S17154 1929 33 SP EA NOT_NAMED 1929-06-04 18:00:00 NR -24.4720 155.343 main 199 199 __________P___ -1 -24.4720 155.343 7 6 139
1929153S17154 1929 33 SP EA NOT_NAMED 1929-06-04 21:00:00 NR -24.6931 155.562 main 224 222 __________P___ -1 -24.6931 155.562 7 6 136
1929153S17154 1929 33 SP EA NOT_NAMED 1929-06-05 00:00:00 NR -24.9000 155.800 main 242 242 __________O___ -1 -24.9000 155.800 7 6 130
1929153S17154 1929 33 SP EA NOT_NAMED 1929-06-05 03:00:00 NR -25.0936 156.091 main 272 272 __________P___ -1 -25.0936 156.091 7 7 124
1929153S17154 1929 33 SP EA NOT_NAMED 1929-06-05 06:00:00 NR -25.2728 156.400 main 303 303 __________P___ -1 -25.2728 156.400 7 7 122
1929153S17154 1929 33 SP EA NOT_NAMED 1929-06-05 09:00:00 NR -25.4405 156.709 main 334 334 __________P___ -1 -25.4405 156.709 7 6 121
1929153S17154 1929 33 SP EA NOT_NAMED 1929-06-05 12:00:00 NR -25.6000 157.000 main 367 367 __________O___ -1 -25.6000 157.000 7 6 122
1929153S17154 1929 33 SP EA NOT_NAMED 1929-06-05 15:00:00 NR -25.7543 157.258 main 401 401 __________P___ -1 -25.7543 157.258 7 5 125
1929153S17154 1929 33 SP EA NOT_NAMED 1929-06-05 18:00:00 NR -25.9049 157.487 main 423 423 __________P___ -1 -25.9049 157.487 7 5 127
1929153S17154 1929 33 SP EA NOT_NAMED 1929-06-05 21:00:00 NR -26.0531 157.698 main 448 448 __________P___ -1 -26.0531 157.698 7 5 128
1929153S17154 1929 33 SP EA NOT_NAMED 1929-06-06 00:00:00 NR -26.2000 157.900 main 470 __________O___ -1 -26.2000 157.900 7 5 129

デジタル台風データ・検索

IBTrACS Databaseについて

本データベースは、米国NOAAが公開する1842年以降の世界の熱帯低気圧のベストトラックデータアーカイブInternational Best Track Archive for Climate Stewardship (IBTrACS)を、ウェブで閲覧しやすい形式に変換したものです。

最終更新日:2021-10-19